createdAt,value
2023-02-04T00:00:07.461Z,101850.31
2023-02-04T00:02:34.517Z,101847.47
2023-02-04T00:05:01.351Z,101858.81
2023-02-04T00:07:29.972Z,101864.00
2023-02-04T00:09:56.570Z,101857.41
2023-02-04T00:12:23.483Z,101861.97
2023-02-04T00:14:50.416Z,101865.50
2023-02-04T00:17:17.024Z,101865.50
2023-02-04T00:19:43.676Z,101883.03
2023-02-04T00:22:10.350Z,101888.63
2023-02-04T00:24:38.224Z,101881.03
2023-02-04T00:27:06.224Z,101881.00
2023-02-04T00:29:32.878Z,101885.00
2023-02-04T00:31:59.866Z,101890.19
2023-02-04T00:34:27.392Z,101883.81
2023-02-04T00:36:54.038Z,101902.16
2023-02-04T00:39:20.750Z,101893.72
2023-02-04T00:41:47.366Z,101902.03
2023-02-04T00:44:14.373Z,101895.59
2023-02-04T00:46:42.398Z,101902.25
2023-02-04T00:49:10.748Z,101904.75
2023-02-04T00:51:39.297Z,101898.94
2023-02-04T00:54:07.200Z,101905.56
2023-02-04T00:56:34.358Z,101910.09
2023-02-04T00:59:01.294Z,101904.13
2023-02-04T01:01:28.065Z,101905.38
2023-02-04T01:03:54.971Z,101900.00
2023-02-04T01:06:23.828Z,101903.03
2023-02-04T01:08:50.611Z,101905.34
2023-02-04T01:11:18.051Z,101915.16
2023-02-04T01:13:44.672Z,101913.53
2023-02-04T01:16:13.127Z,101920.78
2023-02-04T01:18:39.965Z,101915.16
2023-02-04T01:21:06.868Z,101930.84
2023-02-04T01:23:33.521Z,101926.56
2023-02-04T01:26:00.381Z,101931.09
2023-02-04T01:28:27.410Z,101930.69
2023-02-04T01:30:54.355Z,101928.88
2023-02-04T01:33:21.197Z,101934.63
2023-02-04T01:35:47.980Z,101935.03
2023-02-04T01:38:14.951Z,101938.34
2023-02-04T01:40:42.310Z,101939.19
2023-02-04T01:43:10.205Z,101937.13
2023-02-04T01:45:37.028Z,101936.19
2023-02-04T01:48:05.313Z,101950.28
2023-02-04T01:50:33.430Z,101951.69
2023-02-04T01:53:00.539Z,101958.38
2023-02-04T01:55:30.066Z,101960.63
2023-02-04T01:57:58.691Z,101954.47
2023-02-04T02:00:32.188Z,101957.25
2023-02-04T02:03:00.016Z,101963.31
2023-02-04T02:05:38.809Z,101968.25
2023-02-04T02:08:07.457Z,101963.66
2023-02-04T02:10:36.373Z,101959.72
2023-02-04T02:13:04.393Z,101968.19
2023-02-04T02:15:31.296Z,101964.69
2023-02-04T02:17:57.948Z,101960.75
2023-02-04T02:20:26.513Z,101959.72
2023-02-04T02:23:42.866Z,101959.31
2023-02-04T02:26:09.578Z,101962.63
2023-02-04T02:28:36.305Z,101968.50
2023-02-04T02:31:03.340Z,101963.44
2023-02-04T02:33:30.070Z,101969.19
2023-02-04T02:35:56.810Z,101965.91
2023-02-04T02:38:24.645Z,101958.06
2023-02-04T02:40:52.486Z,101973.81
2023-02-04T02:43:22.758Z,101975.75
2023-02-04T02:45:50.244Z,101971.22
2023-02-04T02:48:17.031Z,101968.13
2023-02-04T02:50:44.326Z,101979.34
2023-02-04T02:53:13.747Z,101972.16
2023-02-04T02:55:42.099Z,101971.22
2023-02-04T02:58:29.568Z,101985.31
2023-02-04T03:00:57.510Z,101989.59
2023-02-04T03:03:28.319Z,101989.78
2023-02-04T03:06:03.389Z,101988.00
2023-02-04T03:08:30.690Z,101979.13
2023-02-04T03:10:57.359Z,101993.34
2023-02-04T03:13:24.316Z,101997.97
2023-02-04T03:15:51.163Z,101997.09
2023-02-04T03:18:20.161Z,101991.09
2023-02-04T03:20:48.698Z,101995.53
2023-02-04T03:23:15.556Z,101996.88
2023-02-04T03:25:43.147Z,102002.50
2023-02-04T03:28:10.154Z,101999.16
2023-02-04T03:30:37.152Z,102008.75
2023-02-04T03:33:03.979Z,101999.66
2023-02-04T03:35:30.638Z,102006.41
2023-02-04T03:37:57.517Z,102016.00
2023-02-04T03:40:24.119Z,102013.06
2023-02-04T03:42:50.716Z,102012.38
2023-02-04T03:45:17.444Z,102026.84
2023-02-04T03:47:44.078Z,102029.41
2023-02-04T03:50:13.150Z,102020.94
2023-02-04T03:52:39.965Z,102021.91
2023-02-04T03:55:07.108Z,102026.53
2023-02-04T03:57:33.722Z,102036.13
2023-02-04T04:00:00.339Z,102034.16
2023-02-04T04:02:27.119Z,102044.88
2023-02-04T04:04:53.703Z,102049.28
2023-02-04T04:07:20.617Z,102048.06
2023-02-04T04:09:47.261Z,102057.41
2023-02-04T04:12:13.860Z,102053.00
2023-02-04T04:14:40.478Z,102050.75
2023-02-04T04:17:07.107Z,102052.25
2023-02-04T04:19:33.796Z,102050.69
2023-02-04T04:22:00.365Z,102051.53
2023-02-04T04:24:26.982Z,102063.72
2023-02-04T04:26:53.557Z,102070.88
2023-02-04T04:29:20.148Z,102068.41
2023-02-04T04:31:46.761Z,102074.13
2023-02-04T04:34:13.504Z,102068.50
2023-02-04T04:36:40.160Z,102068.75
2023-02-04T04:39:06.730Z,102080.88
2023-02-04T04:41:33.307Z,102078.84
2023-02-04T04:44:00.034Z,102082.16
2023-02-04T04:46:26.696Z,102088.06
2023-02-04T04:48:53.275Z,102084.41
2023-02-04T04:51:19.908Z,102079.47
2023-02-04T04:53:46.553Z,102085.81
2023-02-04T04:56:13.265Z,102089.91
2023-02-04T04:58:39.972Z,102090.72
2023-02-04T05:01:06.763Z,102097.94
2023-02-04T05:03:33.667Z,102089.41
2023-02-04T05:06:00.333Z,102087.16
2023-02-04T05:08:26.940Z,102091.56
2023-02-04T05:10:53.504Z,102079.91
2023-02-04T05:13:20.064Z,102087.53
2023-02-04T05:15:46.843Z,102089.03
2023-02-04T05:18:13.426Z,102083.66
2023-02-04T05:20:40.060Z,102083.00
2023-02-04T05:23:06.672Z,102083.06
2023-02-04T05:25:33.493Z,102087.03
2023-02-04T05:28:00.146Z,102093.66
2023-02-04T05:30:26.854Z,102100.97
2023-02-04T05:32:53.555Z,102116.97
2023-02-04T05:35:20.448Z,102117.34
2023-02-04T05:37:47.112Z,102122.56
2023-02-04T05:40:14.040Z,102128.16
2023-02-04T05:42:41.741Z,102126.50
2023-02-04T05:45:15.340Z,102128.72
2023-02-04T05:47:42.380Z,102113.84
2023-02-04T05:50:09.417Z,102117.81
2023-02-04T05:52:36.022Z,102132.31
2023-02-04T05:55:02.831Z,102129.81
2023-02-04T05:57:29.842Z,102139.03
2023-02-04T05:59:56.561Z,102133.50
2023-02-04T06:02:23.214Z,102146.09
2023-02-04T06:04:49.809Z,102148.00
2023-02-04T06:07:16.434Z,102142.59
2023-02-04T06:09:43.082Z,102149.72
2023-02-04T06:12:10.525Z,102159.25
2023-02-04T06:14:37.165Z,102158.22
2023-02-04T06:17:04.021Z,102170.81
2023-02-04T06:19:30.686Z,102177.72
2023-02-04T06:21:57.383Z,102174.94
2023-02-04T06:24:24.059Z,102171.00
2023-02-04T06:26:50.700Z,102172.66
2023-02-04T06:29:17.310Z,102180.50
2023-02-04T06:31:44.666Z,102181.31
2023-02-04T06:34:11.427Z,102182.03
2023-02-04T06:36:37.996Z,102178.34
2023-02-04T06:39:04.625Z,102176.69
2023-02-04T06:41:31.290Z,102178.09
2023-02-04T06:43:57.949Z,102179.09
2023-02-04T06:46:24.727Z,102176.63
2023-02-04T06:48:51.412Z,102179.84
2023-02-04T06:51:18.070Z,102183.25
2023-02-04T06:53:45.851Z,102188.16
2023-02-04T06:56:12.609Z,102193.72
2023-02-04T06:58:39.289Z,102191.03
2023-02-04T07:01:06.356Z,102187.78
2023-02-04T07:03:33.044Z,102200.09
2023-02-04T07:05:59.765Z,102197.13
2023-02-04T07:08:26.423Z,102199.53
2023-02-04T07:10:53.031Z,102201.28
2023-02-04T07:13:19.624Z,102214.59
2023-02-04T07:15:46.345Z,102231.13
2023-02-04T07:18:13.003Z,102236.31
2023-02-04T07:20:39.623Z,102238.78
2023-02-04T07:23:06.280Z,102235.63
2023-02-04T07:25:32.909Z,102238.63
2023-02-04T07:28:01.648Z,102231.84
2023-02-04T07:30:28.461Z,102238.63
2023-02-04T07:32:55.166Z,102241.47
2023-02-04T07:35:21.923Z,102245.09
2023-02-04T07:37:48.605Z,102250.38
2023-02-04T07:40:15.374Z,102247.59
2023-02-04T07:42:42.094Z,102258.50
2023-02-04T07:45:15.293Z,102263.66
2023-02-04T07:47:41.896Z,102268.66
2023-02-04T07:50:08.750Z,102275.03
2023-02-04T07:52:35.344Z,102275.78
2023-02-04T07:55:01.985Z,102282.25
2023-02-04T07:57:30.242Z,102283.63
2023-02-04T07:59:57.245Z,102280.69
2023-02-04T08:02:24.018Z,102284.66
2023-02-04T08:04:50.785Z,102293.34
2023-02-04T08:07:17.412Z,102293.91
2023-02-04T08:09:44.089Z,102292.72
2023-02-04T08:12:10.744Z,102295.66
2023-02-04T08:14:38.679Z,102300.69
2023-02-04T08:17:05.268Z,102299.47
2023-02-04T08:19:31.838Z,102308.22
2023-02-04T08:21:58.450Z,102308.22
2023-02-04T08:24:25.083Z,102310.38
2023-02-04T08:26:51.924Z,102304.81
2023-02-04T08:29:18.793Z,102316.47
2023-02-04T08:31:47.632Z,102320.63
2023-02-04T08:34:14.297Z,102318.88
2023-02-04T08:36:40.930Z,102321.63
2023-02-04T08:39:07.528Z,102328.41
2023-02-04T08:41:34.106Z,102325.53
2023-02-04T08:44:03.389Z,102331.09
2023-02-04T08:46:30.226Z,102329.81
2023-02-04T08:48:57.035Z,102340.44
2023-02-04T08:51:23.638Z,102335.81
2023-02-04T08:53:50.218Z,102337.59
2023-02-04T08:56:19.077Z,102339.44
2023-02-04T08:58:46.236Z,102343.41
2023-02-04T09:01:13.105Z,102356.38
2023-02-04T09:03:40.218Z,102359.78
2023-02-04T09:06:07.334Z,102358.75
2023-02-04T09:08:34.216Z,102355.97
2023-02-04T09:11:00.976Z,102360.25
2023-02-04T09:13:28.232Z,102356.72
2023-02-04T09:15:54.927Z,102365.59
2023-02-04T09:18:22.569Z,102365.88
2023-02-04T09:20:49.723Z,102366.25
2023-02-04T09:23:16.533Z,102372.53
2023-02-04T09:25:44.871Z,102376.50
2023-02-04T09:28:13.195Z,102377.88
2023-02-04T09:30:41.076Z,102377.41
2023-02-04T09:33:08.831Z,102372.31
2023-02-04T09:35:35.822Z,102372.34
2023-02-04T09:38:02.602Z,102374.38
2023-02-04T09:40:34.718Z,102368.44
2023-02-04T09:43:03.050Z,102372.06
2023-02-04T09:45:36.288Z,102377.00
2023-02-04T09:48:05.130Z,102376.56
2023-02-04T09:50:32.701Z,102383.88
2023-02-04T09:53:03.270Z,102388.06
2023-02-04T09:55:35.845Z,102403.34
2023-02-04T09:58:05.718Z,102410.22
2023-02-04T10:00:32.846Z,102413.63
2023-02-04T10:03:02.508Z,102411.56
2023-02-04T10:05:34.211Z,102413.16
2023-02-04T10:08:00.879Z,102406.03
2023-02-04T10:10:28.365Z,102406.22
2023-02-04T10:13:01.691Z,102409.38
2023-02-04T10:15:28.478Z,102414.91
2023-02-04T10:18:01.652Z,102414.91
2023-02-04T10:20:28.329Z,102417.09
2023-02-04T10:22:56.160Z,102410.84
2023-02-04T10:25:25.509Z,102415.59
2023-02-04T10:28:00.286Z,102416.66
2023-02-04T10:30:37.916Z,102416.44
2023-02-04T10:33:24.887Z,102415.91
2023-02-04T10:35:53.292Z,102425.53
2023-02-04T10:38:20.550Z,102427.44
2023-02-04T10:40:47.647Z,102429.75
2023-02-04T10:43:21.979Z,102424.53
2023-02-04T10:45:56.988Z,102437.38
2023-02-04T10:48:24.491Z,102426.88
2023-02-04T10:50:51.206Z,102427.16
2023-02-04T10:53:41.678Z,102425.03
2023-02-04T10:56:17.410Z,102423.88
2023-02-04T10:58:44.262Z,102425.09
2023-02-04T11:01:12.312Z,102423.34
2023-02-04T11:03:40.631Z,102424.28
2023-02-04T11:06:13.705Z,102421.19
2023-02-04T11:08:40.632Z,102415.34
2023-02-04T11:11:16.624Z,102413.94
2023-02-04T11:14:00.819Z,102414.56
2023-02-04T11:16:30.422Z,102417.25
2023-02-04T11:18:59.826Z,102420.06
2023-02-04T11:21:32.939Z,102420.31
2023-02-04T11:24:11.705Z,102418.84
2023-02-04T11:26:46.425Z,102416.66
2023-02-04T11:29:16.011Z,102409.78
2023-02-04T11:31:44.263Z,102416.91
2023-02-04T11:34:18.345Z,102417.41
2023-02-04T11:36:57.070Z,102415.19
2023-02-04T11:39:28.974Z,102422.44
2023-02-04T11:41:55.751Z,102428.66
2023-02-04T11:44:23.229Z,102414.28
2023-02-04T11:46:55.292Z,102415.94
2023-02-04T11:49:24.631Z,102419.56
2023-02-04T11:51:51.406Z,102421.38
2023-02-04T11:54:19.223Z,102417.88
2023-02-04T11:56:47.048Z,102414.78
2023-02-04T11:59:14.879Z,102419.69
2023-02-04T12:01:41.568Z,102416.63
2023-02-04T12:04:22.516Z,102424.00
2023-02-04T12:07:03.784Z,102421.28
2023-02-04T12:09:31.509Z,102414.81
2023-02-04T12:12:03.084Z,102418.22
2023-02-04T12:14:33.605Z,102410.03
2023-02-04T12:17:00.288Z,102413.59
2023-02-04T12:19:27.857Z,102410.22
2023-02-04T12:21:55.757Z,102406.41
2023-02-04T12:24:22.760Z,102403.09
2023-02-04T12:26:49.728Z,102403.97
2023-02-04T12:29:16.340Z,102412.28
2023-02-04T12:31:43.066Z,102411.06
2023-02-04T12:34:09.736Z,102417.81
2023-02-04T12:36:36.353Z,102411.56
2023-02-04T12:39:03.633Z,102420.00
2023-02-04T12:41:30.630Z,102421.00
2023-02-04T12:43:57.238Z,102418.63
2023-02-04T12:46:23.958Z,102419.63
2023-02-04T12:48:50.634Z,102416.38
2023-02-04T12:51:17.600Z,102426.16
2023-02-04T12:53:44.178Z,102428.50
2023-02-04T12:56:10.844Z,102416.78
2023-02-04T12:58:37.449Z,102424.69
2023-02-04T13:01:04.593Z,102427.19
2023-02-04T13:03:32.156Z,102427.66
2023-02-04T13:05:59.344Z,102431.00
2023-02-04T13:08:26.035Z,102430.63
2023-02-04T13:10:52.741Z,102425.34
2023-02-04T13:13:20.071Z,102425.34
2023-02-04T13:15:48.093Z,102426.47
2023-02-04T13:18:17.370Z,102434.03
2023-02-04T13:20:45.918Z,102437.38
2023-02-04T13:23:13.008Z,102433.66
2023-02-04T13:25:39.696Z,102427.38
2023-02-04T13:28:06.455Z,102422.56
2023-02-04T13:30:33.182Z,102414.63
2023-02-04T13:32:59.835Z,102419.16
2023-02-04T13:35:26.608Z,102418.69
2023-02-04T13:37:54.093Z,102417.78
2023-02-04T13:40:21.849Z,102413.66
2023-02-04T13:42:48.534Z,102417.69
2023-02-04T13:45:16.251Z,102423.78
2023-02-04T13:47:42.940Z,102426.22
2023-02-04T13:50:10.098Z,102428.03
2023-02-04T13:52:37.703Z,102431.16
2023-02-04T13:55:04.555Z,102434.44
2023-02-04T13:57:32.827Z,102428.69
2023-02-04T13:59:59.451Z,102444.38
2023-02-04T14:02:26.139Z,102439.94
2023-02-04T14:04:52.809Z,102448.34
2023-02-04T14:07:19.487Z,102449.22
2023-02-04T14:09:48.203Z,102444.25
2023-02-04T14:12:15.436Z,102440.00
2023-02-04T14:14:42.075Z,102438.66
2023-02-04T14:17:08.717Z,102437.56
2023-02-04T14:19:35.311Z,102429.44
2023-02-04T14:22:02.737Z,102441.81
2023-02-04T14:24:29.347Z,102447.59
2023-02-04T14:26:56.156Z,102444.56
2023-02-04T14:29:22.730Z,102440.84
2023-02-04T14:31:49.361Z,102446.72
2023-02-04T14:34:15.953Z,102445.09
2023-02-04T14:36:42.585Z,102441.09
2023-02-04T14:39:09.193Z,102443.63
2023-02-04T14:41:35.789Z,102438.69
2023-02-04T14:44:02.380Z,102433.13
2023-02-04T14:46:29.157Z,102430.81
2023-02-04T14:48:55.784Z,102423.97
2023-02-04T14:51:22.594Z,102440.41
2023-02-04T14:53:49.298Z,102428.19
2023-02-04T14:56:16.903Z,102435.63
2023-02-04T14:58:43.581Z,102441.00
2023-02-04T15:01:10.414Z,102443.88
2023-02-04T15:03:37.110Z,102439.44
2023-02-04T15:06:04.184Z,102438.50
2023-02-04T15:08:32.675Z,102443.78
2023-02-04T15:10:59.323Z,102442.31
2023-02-04T15:13:27.892Z,102435.47
2023-02-04T15:15:54.525Z,102444.84
2023-02-04T15:18:21.453Z,102440.34
2023-02-04T15:20:48.020Z,102454.91
2023-02-04T15:23:15.128Z,102450.25
2023-02-04T15:25:41.881Z,102451.19
2023-02-04T15:28:11.674Z,102453.97
2023-02-04T15:30:39.292Z,102451.69
2023-02-04T15:33:05.984Z,102444.44
2023-02-04T15:35:32.636Z,102450.16
2023-02-04T15:37:59.330Z,102455.19
2023-02-04T15:40:29.861Z,102451.19
2023-02-04T15:42:56.579Z,102455.19
2023-02-04T15:45:23.201Z,102458.16
2023-02-04T15:47:50.516Z,102452.69
2023-02-04T15:50:17.584Z,102454.28
2023-02-04T15:52:44.796Z,102454.00
2023-02-04T15:55:11.418Z,102449.09
2023-02-04T15:57:38.540Z,102454.91
2023-02-04T16:00:06.379Z,102457.59
2023-02-04T16:02:33.257Z,102472.03
2023-02-04T16:05:00.188Z,102467.88
2023-02-04T16:07:26.833Z,102465.75
2023-02-04T16:09:53.398Z,102480.22
2023-02-04T16:12:19.980Z,102483.63
2023-02-04T16:14:46.542Z,102486.94
2023-02-04T16:17:13.258Z,102489.09
2023-02-04T16:19:39.939Z,102495.94
2023-02-04T16:22:07.133Z,102491.09
2023-02-04T16:24:34.296Z,102495.16
2023-02-04T16:27:00.933Z,102500.16
2023-02-04T16:29:27.678Z,102500.03
2023-02-04T16:31:54.307Z,102501.16
2023-02-04T16:34:20.946Z,102503.03
2023-02-04T16:36:47.606Z,102502.13
2023-02-04T16:39:14.308Z,102504.63
2023-02-04T16:41:40.928Z,102506.38
2023-02-04T16:44:07.783Z,102511.09
2023-02-04T16:46:34.462Z,102512.28
2023-02-04T16:49:01.201Z,102517.91
2023-02-04T16:51:28.511Z,102516.56
2023-02-04T16:53:55.389Z,102530.53
2023-02-04T16:56:21.970Z,102528.97
2023-02-04T16:58:48.608Z,102521.81
2023-02-04T17:01:17.228Z,102518.38
2023-02-04T17:03:44.517Z,102519.56
2023-02-04T17:06:14.009Z,102534.31
2023-02-04T17:08:40.751Z,102528.69
2023-02-04T17:11:25.916Z,102529.72
2023-02-04T17:13:52.574Z,102527.41
2023-02-04T17:16:19.690Z,102532.56
2023-02-04T17:18:46.304Z,102526.25
2023-02-04T17:21:12.989Z,102529.16
2023-02-04T17:23:40.095Z,102521.22
2023-02-04T17:26:06.768Z,102524.47
2023-02-04T17:28:33.433Z,102526.41
2023-02-04T17:31:00.304Z,102527.13
2023-02-04T17:33:28.204Z,102529.44
2023-02-04T17:35:54.989Z,102524.53
2023-02-04T17:38:22.350Z,102522.25
2023-02-04T17:40:50.100Z,102521.94
2023-02-04T17:43:17.513Z,102523.97
2023-02-04T17:45:44.142Z,102531.50
2023-02-04T17:48:10.809Z,102530.81
2023-02-04T17:50:40.072Z,102534.00
2023-02-04T17:53:08.051Z,102528.09
2023-02-04T17:55:35.752Z,102528.56
2023-02-04T17:58:11.830Z,102529.22
2023-02-04T18:00:38.835Z,102538.66
2023-02-04T18:03:05.979Z,102541.91
2023-02-04T18:05:35.048Z,102548.53
2023-02-04T18:08:18.681Z,102543.63
2023-02-04T18:10:47.807Z,102548.53
2023-02-04T18:13:29.529Z,102556.69
2023-02-04T18:15:58.873Z,102553.06
2023-02-04T18:18:35.891Z,102559.72
2023-02-04T18:21:19.130Z,102548.06
2023-02-04T18:23:46.304Z,102557.00
2023-02-04T18:26:16.665Z,102555.31
2023-02-04T18:28:47.592Z,102551.09
2023-02-04T18:31:36.331Z,102557.00
2023-02-04T18:34:21.259Z,102555.97
2023-02-04T18:36:48.492Z,102562.69
2023-02-04T18:39:21.410Z,102563.13
2023-02-04T18:41:50.794Z,102562.47
2023-02-04T18:44:30.503Z,102562.75
2023-02-04T18:46:57.521Z,102567.94
2023-02-04T18:49:29.571Z,102557.50
2023-02-04T18:51:58.769Z,102567.00
2023-02-04T18:54:35.216Z,102575.41
2023-02-04T18:57:36.211Z,102570.56
2023-02-04T19:00:08.601Z,102567.44
2023-02-04T19:02:47.705Z,102565.69
2023-02-04T19:05:33.803Z,102562.28
2023-02-04T19:08:06.534Z,102564.34
2023-02-04T19:10:37.175Z,102555.84
2023-02-04T19:13:40.665Z,102560.94
2023-02-04T19:16:19.885Z,102559.13
2023-02-04T19:18:47.034Z,102564.13
2023-02-04T19:21:19.563Z,102571.00
2023-02-04T19:23:46.656Z,102570.69
2023-02-04T19:26:28.651Z,102569.88
2023-02-04T19:28:56.135Z,102572.03
2023-02-04T19:31:22.939Z,102577.75
2023-02-04T19:33:54.336Z,102579.75
2023-02-04T19:36:30.968Z,102569.63
2023-02-04T19:39:41.483Z,102578.06
2023-02-04T19:42:29.579Z,102580.13
2023-02-04T19:44:59.416Z,102576.81
2023-02-04T19:47:41.625Z,102568.44
2023-02-04T19:50:14.146Z,102569.31
2023-02-04T19:52:49.123Z,102571.00
2023-02-04T19:55:21.745Z,102569.16
2023-02-04T19:57:51.319Z,102568.66
2023-02-04T20:00:34.237Z,102562.13
2023-02-04T20:03:02.208Z,102565.09
2023-02-04T20:05:32.805Z,102561.75
2023-02-04T20:08:36.880Z,102564.50
2023-02-04T20:11:15.395Z,102566.81
2023-02-04T20:13:41.965Z,102568.50
2023-02-04T20:16:39.418Z,102571.00
2023-02-04T20:19:18.294Z,102577.63
2023-02-04T20:21:51.631Z,102586.16
2023-02-04T20:24:18.348Z,102579.69
2023-02-04T20:26:45.445Z,102574.50
2023-02-04T20:29:21.226Z,102580.72
2023-02-04T20:31:48.080Z,102590.44
2023-02-04T20:34:22.366Z,102584.06
2023-02-04T20:36:51.967Z,102587.94
2023-02-04T20:39:48.485Z,102590.91
2023-02-04T20:42:34.595Z,102601.75
2023-02-04T20:45:43.331Z,102603.78
2023-02-04T20:48:15.994Z,102610.84
2023-02-04T20:50:56.751Z,102616.72
2023-02-04T20:53:26.758Z,102627.56
2023-02-04T20:56:05.047Z,102618.53
2023-02-04T20:58:36.619Z,102618.88
2023-02-04T21:01:19.307Z,102617.88
2023-02-04T21:03:46.280Z,102627.09
2023-02-04T21:06:25.837Z,102621.91
2023-02-04T21:08:54.250Z,102627.44
2023-02-04T21:11:22.077Z,102626.09
2023-02-04T21:13:50.166Z,102620.22
2023-02-04T21:16:17.412Z,102627.25
2023-02-04T21:18:46.204Z,102634.63
2023-02-04T21:21:13.484Z,102634.97
2023-02-04T21:23:40.690Z,102632.09
2023-02-04T21:26:07.591Z,102640.31
2023-02-04T21:28:34.432Z,102631.44
2023-02-04T21:31:01.399Z,102641.97
2023-02-04T21:33:28.112Z,102635.13
2023-02-04T21:35:55.075Z,102629.78
2023-02-04T21:38:21.726Z,102626.91
2023-02-04T21:40:48.558Z,102623.25
2023-02-04T21:43:15.329Z,102625.09
2023-02-04T21:45:42.150Z,102619.56
2023-02-04T21:48:09.116Z,102620.91
2023-02-04T21:50:38.296Z,102605.69
2023-02-04T21:53:05.922Z,102615.03
2023-02-04T21:55:32.848Z,102606.50
2023-02-04T21:58:00.055Z,102615.38
2023-02-04T22:00:27.656Z,102615.56
2023-02-04T22:02:54.469Z,102613.34
2023-02-04T22:05:22.043Z,102612.22
2023-02-04T22:07:49.180Z,102611.19
2023-02-04T22:10:18.880Z,102614.53
2023-02-04T22:12:45.534Z,102616.69
2023-02-04T22:15:12.240Z,102625.53
2023-02-04T22:17:38.902Z,102617.69
2023-02-04T22:20:05.990Z,102624.03
2023-02-04T22:22:32.725Z,102625.19
2023-02-04T22:24:59.489Z,102621.16
2023-02-04T22:27:26.237Z,102630.84
2023-02-04T22:29:52.931Z,102628.56
2023-02-04T22:32:19.505Z,102629.88
2023-02-04T22:34:46.083Z,102630.56
2023-02-04T22:37:12.876Z,102620.00
2023-02-04T22:39:39.549Z,102626.50
2023-02-04T22:42:08.446Z,102624.13
2023-02-04T22:44:35.179Z,102620.31
2023-02-04T22:47:01.901Z,102617.50
2023-02-04T22:49:29.152Z,102609.78
2023-02-04T22:51:55.824Z,102612.16
2023-02-04T22:54:22.431Z,102604.97
2023-02-04T22:56:49.071Z,102605.13
2023-02-04T22:59:15.723Z,102607.75
2023-02-04T23:01:42.337Z,102617.63
2023-02-04T23:04:09.000Z,102618.63
2023-02-04T23:06:36.738Z,102619.47
2023-02-04T23:09:03.919Z,102623.53
2023-02-04T23:11:30.569Z,102611.38
2023-02-04T23:13:57.215Z,102611.94
2023-02-04T23:16:23.998Z,102615.13
2023-02-04T23:18:50.591Z,102613.78
2023-02-04T23:21:17.501Z,102620.47
2023-02-04T23:23:44.154Z,102616.63
2023-02-04T23:26:10.979Z,102616.13
2023-02-04T23:28:38.145Z,102615.75
2023-02-04T23:31:04.964Z,102614.06
2023-02-04T23:33:31.581Z,102618.53
2023-02-04T23:35:58.635Z,102621.28
2023-02-04T23:38:25.443Z,102628.00
2023-02-04T23:40:52.078Z,102629.31
2023-02-04T23:43:18.734Z,102632.81
2023-02-04T23:45:45.855Z,102627.50
2023-02-04T23:48:12.819Z,102625.31
2023-02-04T23:50:39.457Z,102620.78
2023-02-04T23:53:06.215Z,102628.34
2023-02-04T23:55:33.393Z,102622.13
2023-02-04T23:58:00.418Z,102628.00
